Time;durP1;ratioP1;P1;durP2;ratioP2;P2;SDS_P1;SDS_P2;PMS_P1;PMS_P2;Temp;Humidity;BMP_temperature;BMP_pressure;BME280_temperature;BME280_humidity;BME280_pressure;Samples;Min_cycle;Max_cycle;Signal;HPM_P1;HPM_P2
2022/02/13 00:00:17;;;;;;;6.97;1.48;;;;;;;;;;6149225;23;20014;-59
2022/02/13 00:02:43;;;;;;;15.75;2.13;;;;;;;;;;6149480;23;20013;-58
2022/02/13 00:05:09;;;;;;;19.23;1.67;;;;;;;;;;6148487;23;20315;-59
2022/02/13 00:07:35;;;;;;;13.50;2.22;;;;;;;;;;6149741;23;20105;-61
2022/02/13 00:10:03;;;;;;;9.25;1.70;;;;;;;;;;6149442;23;20377;-58
2022/02/13 00:12:29;;;;;;;15.48;1.98;;;;;;;;;;6148723;23;20393;-61
2022/02/13 00:14:55;;;;;;;8.90;1.67;;;;;;;;;;6149727;23;20017;-61
2022/02/13 00:17:21;;;;;;;14.00;1.90;;;;;;;;;;6148691;23;20013;-61
2022/02/13 00:19:46;;;;;;;16.05;2.55;;;;;;;;;;6149842;23;20018;-61
2022/02/13 00:22:13;;;;;;;13.50;1.70;;;;;;;;;;6148504;23;20044;-60
2022/02/13 00:24:39;;;;;;;11.48;1.83;;;;;;;;;;6149050;23;20012;-61
2022/02/13 00:27:04;;;;;;;8.25;1.80;;;;;;;;;;6148847;23;20368;-60
2022/02/13 00:29:30;;;;;;;13.07;2.13;;;;;;;;;;6149403;23;20013;-61
2022/02/13 00:31:55;;;;;;;11.05;2.75;;;;;;;;;;6149316;23;20010;-61
2022/02/13 00:34:21;;;;;;;6.28;1.55;;;;;;;;;;6122793;23;20353;-61
2022/02/13 00:36:46;;;;;;;14.88;2.15;;;;;;;;;;6148252;23;20083;-61
2022/02/13 00:39:12;;;;;;;15.20;1.92;;;;;;;;;;6148945;23;20518;-60
2022/02/13 00:41:38;;;;;;;13.55;1.90;;;;;;;;;;6149163;23;20016;-61
2022/02/13 00:44:04;;;;;;;11.48;1.90;;;;;;;;;;6148811;23;20009;-61
2022/02/13 00:46:29;;;;;;;12.00;1.80;;;;;;;;;;6147351;23;20013;-61
2022/02/13 00:48:55;;;;;;;11.43;2.10;;;;;;;;;;6146570;23;20014;-61
2022/02/13 00:51:21;;;;;;;9.43;1.58;;;;;;;;;;6147658;23;20017;-60
2022/02/13 00:53:47;;;;;;;5.82;1.45;;;;;;;;;;6149745;23;20064;-60
2022/02/13 00:56:13;;;;;;;11.40;1.55;;;;;;;;;;6122358;23;20385;-61
2022/02/13 00:58:39;;;;;;;12.68;1.30;;;;;;;;;;6148596;23;20599;-60
2022/02/13 01:01:05;;;;;;;6.60;1.48;;;;;;;;;;6147576;23;20018;-60
2022/02/13 01:03:31;;;;;;;8.00;1.38;;;;;;;;;;6148425;23;20006;-61
2022/02/13 01:05:56;;;;;;;8.35;1.40;;;;;;;;;;6149558;23;20006;-60
2022/02/13 01:08:23;;;;;;;12.80;1.90;;;;;;;;;;6148646;23;20059;-61
2022/02/13 01:10:48;;;;;;;6.90;1.25;;;;;;;;;;6148725;23;20085;-62
2022/02/13 01:13:14;;;;;;;5.95;1.23;;;;;;;;;;6147953;23;20052;-60
2022/02/13 01:15:39;;;;;;;23.65;1.83;;;;;;;;;;6148816;23;20016;-61
2022/02/13 01:18:05;;;;;;;13.20;1.30;;;;;;;;;;6148706;23;20017;-61
2022/02/13 01:20:30;;;;;;;10.63;1.83;;;;;;;;;;6148616;23;20014;-61
2022/02/13 01:22:56;;;;;;;6.32;1.02;;;;;;;;;;6148600;23;20442;-61
2022/02/13 01:25:21;;;;;;;5.40;1.23;;;;;;;;;;6148408;23;20009;-60
2022/02/13 01:27:47;;;;;;;5.45;1.17;;;;;;;;;;6122050;23;20009;-61
2022/02/13 01:30:13;;;;;;;9.30;0.95;;;;;;;;;;6148150;23;20014;-61
2022/02/13 01:32:39;;;;;;;12.95;1.92;;;;;;;;;;6148359;23;20063;-61
2022/02/13 01:35:05;;;;;;;10.10;1.52;;;;;;;;;;6148633;23;20011;-61
2022/02/13 01:37:30;;;;;;;8.63;1.30;;;;;;;;;;6148514;23;20021;-61
2022/02/13 01:39:56;;;;;;;10.90;1.83;;;;;;;;;;6147814;23;20013;-60
2022/02/13 01:42:21;;;;;;;8.90;1.73;;;;;;;;;;6147786;23;20064;-60
2022/02/13 01:44:49;;;;;;;6.85;1.35;;;;;;;;;;6147434;23;20676;-61
2022/02/13 01:47:15;;;;;;;11.90;1.10;;;;;;;;;;6147437;23;20071;-61
2022/02/13 01:49:41;;;;;;;8.57;1.02;;;;;;;;;;6147762;23;20025;-59
2022/02/13 01:52:07;;;;;;;7.88;1.33;;;;;;;;;;6147471;23;20457;-60
2022/02/13 01:54:32;;;;;;;7.40;1.23;;;;;;;;;;6148012;23;20033;-61
2022/02/13 01:56:58;;;;;;;1.92;0.90;;;;;;;;;;6148124;23;20031;-61
2022/02/13 01:59:24;;;;;;;6.43;1.00;;;;;;;;;;6148484;23;20035;-60
2022/02/13 02:01:49;;;;;;;5.30;1.17;;;;;;;;;;6148535;23;20013;-61
2022/02/13 02:04:15;;;;;;;6.25;0.73;;;;;;;;;;6148055;23;20013;-60
2022/02/13 02:06:40;;;;;;;5.88;1.20;;;;;;;;;;6147921;23;20020;-61
2022/02/13 02:09:06;;;;;;;11.23;1.52;;;;;;;;;;6147839;23;20208;-60
2022/02/13 02:11:33;;;;;;;8.70;1.13;;;;;;;;;;6147893;23;20002;-62
2022/02/13 02:13:58;;;;;;;12.23;1.45;;;;;;;;;;6147597;23;20029;-60
2022/02/13 02:16:24;;;;;;;9.73;1.35;;;;;;;;;;6148096;23;20005;-60
2022/02/13 02:18:49;;;;;;;9.30;0.98;;;;;;;;;;6148114;23;20017;-60
2022/02/13 02:21:15;;;;;;;4.93;1.13;;;;;;;;;;6148375;23;20033;-60
2022/02/13 02:23:40;;;;;;;9.02;1.52;;;;;;;;;;6147520;23;20029;-60
2022/02/13 02:26:07;;;;;;;11.25;1.58;;;;;;;;;;6148189;23;20281;-60
2022/02/13 02:28:33;;;;;;;13.20;2.13;;;;;;;;;;6148057;23;20001;-61
2022/02/13 02:30:59;;;;;;;9.68;1.52;;;;;;;;;;6148078;23;20006;-61
2022/02/13 02:33:24;;;;;;;9.43;1.48;;;;;;;;;;6147146;23;20013;-61
2022/02/13 02:35:50;;;;;;;9.93;1.30;;;;;;;;;;6148094;23;20595;-61
2022/02/13 02:38:16;;;;;;;7.30;1.58;;;;;;;;;;6121040;23;20013;-60
2022/02/13 02:40:42;;;;;;;17.48;2.13;;;;;;;;;;6147890;23;20413;-61
2022/02/13 02:43:08;;;;;;;6.85;1.27;;;;;;;;;;6147906;23;20014;-60
2022/02/13 02:45:34;;;;;;;10.32;1.67;;;;;;;;;;6147911;23;20005;-61
2022/02/13 02:47:59;;;;;;;17.65;1.75;;;;;;;;;;6147224;23;20009;-60
2022/02/13 02:50:25;;;;;;;10.18;1.40;;;;;;;;;;6147645;23;20053;-61
2022/02/13 02:52:50;;;;;;;16.27;1.50;;;;;;;;;;6148595;23;20083;-61
2022/02/13 02:55:16;;;;;;;7.22;1.27;;;;;;;;;;6147069;23;20041;-60
2022/02/13 02:57:42;;;;;;;13.38;1.55;;;;;;;;;;6148259;23;20005;-61
2022/02/13 03:00:09;;;;;;;21.67;1.83;;;;;;;;;;6147132;23;20322;-61
2022/02/13 03:02:35;;;;;;;10.82;1.83;;;;;;;;;;6147501;23;20009;-61
2022/02/13 03:05:01;;;;;;;17.88;1.92;;;;;;;;;;6147935;23;20005;-61
2022/02/13 03:07:26;;;;;;;19.02;1.70;;;;;;;;;;6147940;23;20014;-60
2022/02/13 03:09:52;;;;;;;11.63;1.90;;;;;;;;;;6147218;23;20005;-60
2022/02/13 03:12:17;;;;;;;12.85;1.63;;;;;;;;;;6147580;23;20012;-60
2022/02/13 03:14:43;;;;;;;10.32;1.38;;;;;;;;;;6121106;23;20108;-61
2022/02/13 03:17:09;;;;;;;20.15;2.03;;;;;;;;;;6147103;23;20009;-60
2022/02/13 03:19:35;;;;;;;13.48;1.50;;;;;;;;;;6146961;23;20214;-61
2022/02/13 03:22:01;;;;;;;9.05;1.52;;;;;;;;;;6148268;23;20061;-61
2022/02/13 03:24:26;;;;;;;10.57;1.33;;;;;;;;;;6146576;23;20010;-60
2022/02/13 03:26:52;;;;;;;13.05;1.65;;;;;;;;;;6147502;23;20009;-59
2022/02/13 03:29:17;;;;;;;12.32;1.17;;;;;;;;;;6146388;23;20093;-61
2022/02/13 03:31:43;;;;;;;10.48;1.15;;;;;;;;;;6148534;23;20345;-61
2022/02/13 03:34:09;;;;;;;12.00;1.50;;;;;;;;;;6143539;23;20013;-60
2022/02/13 03:36:35;;;;;;;16.17;1.55;;;;;;;;;;6148121;23;20017;-60
2022/02/13 03:39:00;;;;;;;8.85;1.55;;;;;;;;;;6147190;23;20349;-61
2022/02/13 03:41:26;;;;;;;9.18;1.08;;;;;;;;;;6147673;23;20014;-61
2022/02/13 03:43:51;;;;;;;11.27;1.45;;;;;;;;;;6147193;23;20005;-60
2022/02/13 03:46:17;;;;;;;14.75;1.40;;;;;;;;;;6147245;23;20016;-60
2022/02/13 03:48:43;;;;;;;8.07;0.90;;;;;;;;;;6146978;23;20348;-60
2022/02/13 03:51:09;;;;;;;15.93;1.08;;;;;;;;;;6146968;23;20096;-60
2022/02/13 03:53:35;;;;;;;8.20;0.98;;;;;;;;;;6147146;23;20479;-61
2022/02/13 03:56:00;;;;;;;12.02;1.70;;;;;;;;;;6147216;23;20089;-60
2022/02/13 03:58:26;;;;;;;20.63;2.35;;;;;;;;;;6147563;23;20025;-60
2022/02/13 04:00:51;;;;;;;10.80;1.02;;;;;;;;;;6147109;23;20072;-60
2022/02/13 04:03:17;;;;;;;13.00;1.13;;;;;;;;;;6146999;23;20009;-60
2022/02/13 04:05:42;;;;;;;14.77;1.30;;;;;;;;;;6147655;23;20009;-60
2022/02/13 04:08:08;;;;;;;15.23;1.52;;;;;;;;;;6147276;23;20016;-60
2022/02/13 04:10:33;;;;;;;17.83;1.60;;;;;;;;;;6147932;23;20085;-60
2022/02/13 04:12:59;;;;;;;14.82;1.48;;;;;;;;;;6146717;23;20033;-60
2022/02/13 04:15:25;;;;;;;13.98;1.63;;;;;;;;;;6147008;23;20037;-60
2022/02/13 04:17:51;;;;;;;9.10;1.10;;;;;;;;;;6123319;23;20016;-60
2022/02/13 04:20:18;;;;;;;5.65;1.25;;;;;;;;;;6122620;23;20314;-59
2022/02/13 04:22:43;;;;;;;9.63;1.00;;;;;;;;;;6150229;23;20005;-59
2022/02/13 04:25:09;;;;;;;7.85;1.27;;;;;;;;;;6148868;23;20029;-60
2022/02/13 04:27:36;;;;;;;10.57;1.10;;;;;;;;;;6148835;23;20064;-60
2022/02/13 04:30:06;;;;;;;5.50;1.00;;;;;;;;;;6148590;23;20010;-59
2022/02/13 04:32:31;;;;;;;9.38;0.90;;;;;;;;;;6149363;23;20096;-60
2022/02/13 04:34:57;;;;;;;7.97;1.00;;;;;;;;;;6148830;23;20456;-59
2022/02/13 04:37:22;;;;;;;8.77;1.55;;;;;;;;;;6149276;23;20013;-59
2022/02/13 04:39:48;;;;;;;8.35;1.63;;;;;;;;;;6148433;23;20158;-58
2022/02/13 04:42:14;;;;;;;14.05;1.20;;;;;;;;;;6149552;23;20063;-58
2022/02/13 04:44:41;;;;;;;8.55;1.20;;;;;;;;;;6148291;23;20013;-58
2022/02/13 04:47:07;;;;;;;8.38;1.85;;;;;;;;;;6148433;23;20027;-59
2022/02/13 04:49:32;;;;;;;10.77;1.77;;;;;;;;;;6148964;23;20029;-59
2022/02/13 04:51:58;;;;;;;9.13;1.70;;;;;;;;;;6148690;23;20008;-59
2022/02/13 04:54:23;;;;;;;16.73;2.10;;;;;;;;;;6149502;23;20016;-58
2022/02/13 04:56:50;;;;;;;12.07;2.05;;;;;;;;;;6149125;23;20014;-59
2022/02/13 04:59:16;;;;;;;10.63;2.28;;;;;;;;;;6148608;23;20005;-58
2022/02/13 05:01:41;;;;;;;12.52;2.30;;;;;;;;;;6122822;23;20009;-58
2022/02/13 05:04:07;;;;;;;9.60;1.98;;;;;;;;;;6122793;23;20182;-58
2022/02/13 05:06:32;;;;;;;16.00;1.80;;;;;;;;;;6098899;23;20425;-58
2022/02/13 05:08:58;;;;;;;6.82;1.30;;;;;;;;;;6148921;23;20016;-58
2022/02/13 05:11:23;;;;;;;6.10;1.10;;;;;;;;;;6148136;23;20025;-58
2022/02/13 05:13:49;;;;;;;1.83;0.57;;;;;;;;;;6148639;23;20064;-58
2022/02/13 05:16:14;;;;;;;3.50;0.65;;;;;;;;;;6148553;23;20009;-58
2022/02/13 05:18:40;;;;;;;2.08;0.65;;;;;;;;;;6149544;23;20014;-57
2022/02/13 05:21:05;;;;;;;2.58;0.40;;;;;;;;;;6148251;23;20009;-58
2022/02/13 05:23:31;;;;;;;4.47;0.35;;;;;;;;;;6148156;23;20013;-58
2022/02/13 05:25:56;;;;;;;0.80;0.20;;;;;;;;;;6148602;23;20013;-58
2022/02/13 05:28:22;;;;;;;0.63;0.30;;;;;;;;;;6121761;23;20009;-58
2022/02/13 05:30:47;;;;;;;0.82;0.22;;;;;;;;;;6148085;23;20471;-58
2022/02/13 05:33:13;;;;;;;0.30;0.30;;;;;;;;;;6097360;23;20137;-58
2022/02/13 05:35:38;;;;;;;0.32;0.30;;;;;;;;;;6148953;23;20093;-58
2022/02/13 05:38:04;;;;;;;2.78;0.40;;;;;;;;;;6148189;23;20049;-58
2022/02/13 05:40:29;;;;;;;0.40;0.30;;;;;;;;;;6148118;23;20020;-58
2022/02/13 05:42:55;;;;;;;0.85;0.30;;;;;;;;;;6148945;23;20349;-58
2022/02/13 05:45:20;;;;;;;1.35;0.40;;;;;;;;;;6147255;23;20280;-58
2022/02/13 05:47:48;;;;;;;0.68;0.30;;;;;;;;;;6149213;23;20403;-58
2022/02/13 05:50:14;;;;;;;1.75;0.40;;;;;;;;;;6147864;23;20446;-58
2022/02/13 05:52:39;;;;;;;0.28;0.28;;;;;;;;;;6148217;23;20016;-58
2022/02/13 05:55:05;;;;;;;2.10;0.30;;;;;;;;;;6148078;23;20013;-58
2022/02/13 05:57:31;;;;;;;2.97;0.40;;;;;;;;;;6148651;23;20377;-58
2022/02/13 05:59:57;;;;;;;0.47;0.30;;;;;;;;;;6147338;23;20023;-58
2022/02/13 06:02:22;;;;;;;1.50;0.20;;;;;;;;;;6148655;23;20006;-58
2022/02/13 06:04:48;;;;;;;1.55;0.47;;;;;;;;;;6147456;23;20006;-58
2022/02/13 06:07:15;;;;;;;0.75;0.57;;;;;;;;;;6148086;23;20016;-58
2022/02/13 06:09:41;;;;;;;1.98;0.50;;;;;;;;;;6147932;23;20020;-59
2022/02/13 06:12:07;;;;;;;2.88;0.38;;;;;;;;;;6147085;23;20275;-58
2022/02/13 06:14:33;;;;;;;2.70;0.60;;;;;;;;;;6147802;23;20345;-59
2022/02/13 06:16:59;;;;;;;2.45;0.60;;;;;;;;;;6148047;23;20016;-58
2022/02/13 06:19:26;;;;;;;1.60;0.82;;;;;;;;;;6148867;23;20013;-59
2022/02/13 06:21:51;;;;;;;2.63;0.88;;;;;;;;;;6147177;23;20448;-58
2022/02/13 06:24:17;;;;;;;0.75;0.70;;;;;;;;;;6148209;23;20009;-59
2022/02/13 06:26:42;;;;;;;0.75;0.52;;;;;;;;;;6149093;23;20016;-59
2022/02/13 06:29:09;;;;;;;1.67;0.60;;;;;;;;;;6146897;23;20013;-59
2022/02/13 06:31:34;;;;;;;0.20;0.20;;;;;;;;;;6120946;23;20501;-59
2022/02/13 06:34:00;;;;;;;0.40;0.40;;;;;;;;;;6148311;23;20009;-59
2022/02/13 06:36:26;;;;;;;1.10;0.40;;;;;;;;;;6147816;23;20012;-59
2022/02/13 06:38:51;;;;;;;0.40;0.40;;;;;;;;;;6147594;23;20361;-59
2022/02/13 06:41:17;;;;;;;1.38;0.60;;;;;;;;;;6148198;23;20017;-58
2022/02/13 06:43:42;;;;;;;2.20;0.57;;;;;;;;;;6147163;23;20010;-59
2022/02/13 06:46:08;;;;;;;2.22;0.70;;;;;;;;;;6148287;23;20018;-59
2022/02/13 06:48:34;;;;;;;1.08;0.50;;;;;;;;;;6148120;23;20436;-59
2022/02/13 06:51:00;;;;;;;1.13;0.60;;;;;;;;;;6147145;23;20460;-58
2022/02/13 06:53:25;;;;;;;2.45;0.60;;;;;;;;;;6147203;23;20056;-58
2022/02/13 06:55:51;;;;;;;2.25;0.40;;;;;;;;;;6147746;23;20010;-59
2022/02/13 06:58:18;;;;;;;0.82;0.50;;;;;;;;;;6148493;23;20396;-58
2022/02/13 07:00:44;;;;;;;0.82;0.20;;;;;;;;;;6147743;23;20103;-58
2022/02/13 07:03:10;;;;;;;0.20;0.20;;;;;;;;;;6147065;23;20426;-59
2022/02/13 07:05:35;;;;;;;0.20;0.10;;;;;;;;;;6147644;23;20021;-59
2022/02/13 07:08:01;;;;;;;0.20;0.20;;;;;;;;;;6147929;23;20347;-59
2022/02/13 07:10:26;;;;;;;0.45;0.10;;;;;;;;;;6147119;23;20013;-59
2022/02/13 07:12:52;;;;;;;0.10;0.10;;;;;;;;;;6143971;23;20034;-59
2022/02/13 07:15:17;;;;;;;0.10;0.10;;;;;;;;;;6147243;23;20429;-60
2022/02/13 07:17:44;;;;;;;0.20;0.20;;;;;;;;;;6147138;23;20005;-59
2022/02/13 07:20:09;;;;;;;0.15;0.10;;;;;;;;;;6147497;23;20028;-58
2022/02/13 07:22:35;;;;;;;0.38;0.10;;;;;;;;;;6147936;23;20433;-59
2022/02/13 07:25:02;;;;;;;0.40;0.20;;;;;;;;;;6121338;23;20021;-59
2022/02/13 07:27:28;;;;;;;0.20;0.20;;;;;;;;;;6147108;23;20013;-59
2022/02/13 07:29:53;;;;;;;0.77;0.38;;;;;;;;;;6147255;23;20432;-59
2022/02/13 07:32:19;;;;;;;0.15;0.10;;;;;;;;;;6146848;23;20052;-59
2022/02/13 07:34:44;;;;;;;0.20;0.20;;;;;;;;;;6147069;23;20013;-58
2022/02/13 07:37:10;;;;;;;2.47;0.30;;;;;;;;;;6146869;23;20013;-59
2022/02/13 07:39:36;;;;;;;0.30;0.10;;;;;;;;;;6147539;23;20345;-58
2022/02/13 07:42:03;;;;;;;0.57;0.25;;;;;;;;;;6146817;23;20013;-59
2022/02/13 07:44:29;;;;;;;0.10;0.10;;;;;;;;;;6147472;23;20258;-59
2022/02/13 07:46:55;;;;;;;0.13;0.13;;;;;;;;;;6147355;23;20304;-58
2022/02/13 07:49:20;;;;;;;0.30;0.22;;;;;;;;;;6145865;23;20010;-59
2022/02/13 07:51:46;;;;;;;0.17;0.17;;;;;;;;;;6148476;23;20010;-58
2022/02/13 07:54:13;;;;;;;0.28;0.20;;;;;;;;;;6147164;23;20396;-58
2022/02/13 07:56:39;;;;;;;0.28;0.20;;;;;;;;;;6147790;23;20012;-58
2022/02/13 07:59:05;;;;;;;0.20;0.20;;;;;;;;;;6148446;23;20009;-58
2022/02/13 08:01:30;;;;;;;1.27;0.20;;;;;;;;;;6147972;23;20014;-58
2022/02/13 08:03:56;;;;;;;0.30;0.20;;;;;;;;;;6149355;23;20085;-59
2022/02/13 08:06:21;;;;;;;0.20;0.20;;;;;;;;;;6149501;23;20036;-59
2022/02/13 08:08:48;;;;;;;0.38;0.30;;;;;;;;;;6149026;23;20184;-59
2022/02/13 08:11:15;;;;;;;1.25;0.40;;;;;;;;;;6148194;23;20037;-58
2022/02/13 08:13:40;;;;;;;0.30;0.20;;;;;;;;;;6122820;23;20444;-59
2022/02/13 08:16:06;;;;;;;0.47;0.38;;;;;;;;;;6147781;23;20019;-59
2022/02/13 08:18:32;;;;;;;1.38;0.68;;;;;;;;;;6148901;23;20021;-59
2022/02/13 08:20:58;;;;;;;1.95;0.40;;;;;;;;;;6146559;23;20342;-59
2022/02/13 08:23:25;;;;;;;0.10;0.10;;;;;;;;;;6148433;23;20013;-59
2022/02/13 08:25:52;;;;;;;0.28;0.10;;;;;;;;;;6148770;23;20013;-59
2022/02/13 08:28:18;;;;;;;1.17;0.20;;;;;;;;;;6148054;23;20025;-59
2022/02/13 08:30:44;;;;;;;2.22;0.25;;;;;;;;;;6149313;23;20029;-58
2022/02/13 08:33:10;;;;;;;1.85;0.22;;;;;;;;;;6148303;23;20009;-58
2022/02/13 08:35:36;;;;;;;0.38;0.20;;;;;;;;;;6149472;23;20005;-59
2022/02/13 08:38:03;;;;;;;0.30;0.28;;;;;;;;;;6147412;23;20369;-58
2022/02/13 08:40:30;;;;;;;5.05;0.68;;;;;;;;;;6122641;23;20009;-57
2022/02/13 08:42:55;;;;;;;3.05;0.30;;;;;;;;;;6148930;23;20040;-58
2022/02/13 08:45:21;;;;;;;0.25;0.10;;;;;;;;;;6148314;23;20299;-58
2022/02/13 08:47:46;;;;;;;0.52;0.20;;;;;;;;;;6120699;23;20404;-58
2022/02/13 08:50:12;;;;;;;0.10;0.10;;;;;;;;;;6147287;23;20021;-59
2022/02/13 08:52:38;;;;;;;0.63;0.17;;;;;;;;;;6147387;23;20080;-59
2022/02/13 08:55:04;;;;;;;0.75;0.28;;;;;;;;;;6148062;23;20065;-58
2022/02/13 08:57:29;;;;;;;0.65;0.17;;;;;;;;;;6148179;23;20009;-59
2022/02/13 08:59:55;;;;;;;3.40;0.30;;;;;;;;;;6148279;23;20025;-58
2022/02/13 09:02:21;;;;;;;0.70;0.30;;;;;;;;;;6147387;23;20303;-59
2022/02/13 09:04:46;;;;;;;1.65;0.52;;;;;;;;;;6146072;23;20253;-58
2022/02/13 09:07:12;;;;;;;3.55;0.55;;;;;;;;;;6147619;23;20344;-58
2022/02/13 09:09:41;;;;;;;0.77;0.40;;;;;;;;;;6147808;23;20068;-59
2022/02/13 09:12:07;;;;;;;0.80;0.43;;;;;;;;;;6147178;23;20001;-58
2022/02/13 09:14:32;;;;;;;0.43;0.40;;;;;;;;;;6147944;23;20015;-58
2022/02/13 09:16:58;;;;;;;0.98;0.70;;;;;;;;;;6148820;23;20084;-59
2022/02/13 09:19:23;;;;;;;0.90;0.40;;;;;;;;;;6148251;23;20016;-59
2022/02/13 09:21:52;;;;;;;1.20;0.60;;;;;;;;;;6148759;23;20006;-59
2022/02/13 09:24:19;;;;;;;2.47;0.75;;;;;;;;;;6148407;23;20045;-59
2022/02/13 09:26:45;;;;;;;0.82;0.40;;;;;;;;;;6146590;23;20013;-58
2022/02/13 09:29:10;;;;;;;1.20;0.57;;;;;;;;;;6147957;23;20032;-58
2022/02/13 09:31:36;;;;;;;0.65;0.40;;;;;;;;;;6147562;23;20012;-58
2022/02/13 09:34:01;;;;;;;4.13;0.30;;;;;;;;;;6147427;23;20076;-58
2022/02/13 09:36:27;;;;;;;0.73;0.32;;;;;;;;;;6148593;23;20421;-59
2022/02/13 09:38:53;;;;;;;0.28;0.28;;;;;;;;;;6121278;23;20020;-58
2022/02/13 09:41:18;;;;;;;1.15;0.40;;;;;;;;;;6148432;23;20036;-58
2022/02/13 09:43:44;;;;;;;0.55;0.20;;;;;;;;;;6147846;23;20009;-59
2022/02/13 09:46:13;;;;;;;0.57;0.20;;;;;;;;;;6148441;23;20009;-59
2022/02/13 09:48:39;;;;;;;0.70;0.32;;;;;;;;;;6147699;23;20016;-59
2022/02/13 09:51:04;;;;;;;1.25;0.47;;;;;;;;;;6147947;23;20025;-58
2022/02/13 09:53:34;;;;;;;2.08;0.50;;;;;;;;;;6146601;23;20013;-59
2022/02/13 09:56:00;;;;;;;1.13;0.50;;;;;;;;;;6147633;23;20009;-59
2022/02/13 09:58:26;;;;;;;1.00;0.38;;;;;;;;;;6146943;23;20013;-59
2022/02/13 10:01:04;;;;;;;1.67;0.63;;;;;;;;;;6145490;23;20040;-58
2022/02/13 10:03:40;;;;;;;3.42;0.90;;;;;;;;;;6121233;23;20396;-58
2022/02/13 10:06:11;;;;;;;5.47;1.10;;;;;;;;;;6147351;23;20032;-58
2022/02/13 10:08:42;;;;;;;1.38;0.75;;;;;;;;;;6146684;23;20017;-59
2022/02/13 10:11:19;;;;;;;1.08;0.50;;;;;;;;;;6146933;23;19997;-58
2022/02/13 10:13:53;;;;;;;0.98;0.50;;;;;;;;;;6147259;23;20032;-58
2022/02/13 10:16:45;;;;;;;0.35;0.30;;;;;;;;;;6147534;23;20006;-58
2022/02/13 10:19:15;;;;;;;0.50;0.28;;;;;;;;;;6147293;23;20190;-58
2022/02/13 10:21:55;;;;;;;2.72;0.45;;;;;;;;;;6147051;23;20010;-58
2022/02/13 10:24:27;;;;;;;1.73;0.40;;;;;;;;;;6146112;23;20006;-59
2022/02/13 10:27:15;;;;;;;0.68;0.38;;;;;;;;;;6145112;23;20013;-58
2022/02/13 10:29:46;;;;;;;1.27;0.20;;;;;;;;;;6147219;23;20013;-59
2022/02/13 10:32:17;;;;;;;0.63;0.30;;;;;;;;;;6145083;23;20017;-59
2022/02/13 10:35:03;;;;;;;1.45;0.30;;;;;;;;;;6146027;23;20090;-59
2022/02/13 10:37:42;;;;;;;0.30;0.30;;;;;;;;;;6147532;23;20519;-58
2022/02/13 10:40:18;;;;;;;0.75;0.30;;;;;;;;;;6148141;23;20113;-58
2022/02/13 10:42:44;;;;;;;0.25;0.25;;;;;;;;;;6146771;23;20001;-58
2022/02/13 10:45:28;;;;;;;0.30;0.22;;;;;;;;;;6147964;23;20013;-59
2022/02/13 10:47:59;;;;;;;0.68;0.38;;;;;;;;;;6146553;23;20441;-58
2022/02/13 10:50:26;;;;;;;0.32;0.20;;;;;;;;;;6147288;23;20111;-58
2022/02/13 10:52:58;;;;;;;1.25;0.40;;;;;;;;;;6146853;23;20449;-59
2022/02/13 10:55:24;;;;;;;;;;;;;;;;;;6147078;23;20016;-59
2022/02/13 10:57:51;;;;;;;1.00;0.40;;;;;;;;;;6146745;23;19912;-59
2022/02/13 11:00:17;;;;;;;0.20;0.20;;;;;;;;;;6147442;23;20322;-59
2022/02/13 11:02:45;;;;;;;0.85;0.32;;;;;;;;;;6147411;23;20017;-59
2022/02/13 11:05:13;;;;;;;4.40;0.65;;;;;;;;;;6147131;23;20025;-59
2022/02/13 11:07:43;;;;;;;0.50;0.30;;;;;;;;;;6145539;23;20084;-58
2022/02/13 11:10:23;;;;;;;0.52;0.40;;;;;;;;;;6147897;23;20441;-57
2022/02/13 11:12:53;;;;;;;3.13;0.60;;;;;;;;;;6144435;23;20009;-59
2022/02/13 11:15:21;;;;;;;1.75;0.70;;;;;;;;;;6146796;23;20016;-59
2022/02/13 11:17:49;;;;;;;2.25;0.70;;;;;;;;;;6143717;23;20045;-62
2022/02/13 11:20:17;;;;;;;1.08;0.68;;;;;;;;;;6147036;23;20012;-57
2022/02/13 11:22:47;;;;;;;0.75;0.52;;;;;;;;;;6147769;23;20006;-59
2022/02/13 11:25:13;;;;;;;2.05;0.70;;;;;;;;;;6121897;23;20420;-59
2022/02/13 11:27:59;;;;;;;1.23;0.73;;;;;;;;;;6146492;23;20530;-60
2022/02/13 11:30:45;;;;;;;0.63;0.40;;;;;;;;;;6121838;23;20450;-60
2022/02/13 11:33:23;;;;;;;0.73;0.50;;;;;;;;;;6148739;23;20005;-60
2022/02/13 11:35:55;;;;;;;2.08;0.88;;;;;;;;;;6147296;23;20033;-60
2022/02/13 11:38:51;;;;;;;2.03;0.88;;;;;;;;;;6147191;23;20079;-59
2022/02/13 11:41:40;;;;;;;1.08;0.73;;;;;;;;;;6146974;23;20009;-59
2022/02/13 11:44:06;;;;;;;0.95;0.80;;;;;;;;;;6147403;23;20001;-59
2022/02/13 11:46:40;;;;;;;4.75;1.35;;;;;;;;;;6147881;23;20024;-59
2022/02/13 11:49:11;;;;;;;1.75;1.13;;;;;;;;;;6146395;23;20059;-59
2022/02/13 11:51:45;;;;;;;0.50;0.50;;;;;;;;;;6148288;23;20060;-60
2022/02/13 11:54:42;;;;;;;1.10;0.93;;;;;;;;;;6146896;23;20096;-59
2022/02/13 11:57:19;;;;;;;2.22;1.65;;;;;;;;;;6121511;23;20001;-59
2022/02/13 11:59:52;;;;;;;8.55;3.95;;;;;;;;;;6147417;23;20461;-59
2022/02/13 12:02:40;;;;;;;6.10;2.92;;;;;;;;;;6146912;23;20088;-59
2022/02/13 12:05:06;;;;;;;7.18;3.30;;;;;;;;;;6126043;23;20012;-60
2022/02/13 12:07:37;;;;;;;8.30;4.15;;;;;;;;;;6147020;23;20006;-61
2022/02/13 12:10:09;;;;;;;8.65;4.85;;;;;;;;;;6142890;23;20029;-60
2022/02/13 12:12:39;;;;;;;10.23;6.20;;;;;;;;;;6146575;23;20480;-59
2022/02/13 12:15:05;;;;;;;8.77;4.10;;;;;;;;;;6121341;23;20095;-59
2022/02/13 12:17:31;;;;;;;11.93;5.75;;;;;;;;;;6146887;23;20021;-59
2022/02/13 12:20:00;;;;;;;8.70;4.78;;;;;;;;;;6120834;23;20014;-58
2022/02/13 12:22:26;;;;;;;12.88;6.55;;;;;;;;;;6146832;23;20013;-58
2022/02/13 12:24:55;;;;;;;15.02;6.45;;;;;;;;;;6146431;23;20005;-59
2022/02/13 12:27:22;;;;;;;6.72;4.82;;;;;;;;;;6146713;23;20009;-60
2022/02/13 12:29:51;;;;;;;14.10;5.97;;;;;;;;;;6146286;23;20344;-59
2022/02/13 12:32:18;;;;;;;6.47;3.80;;;;;;;;;;6144974;23;20526;-60
2022/02/13 12:34:51;;;;;;;7.97;4.20;;;;;;;;;;6145409;23;20006;-60
2022/02/13 12:37:17;;;;;;;9.18;4.05;;;;;;;;;;6145469;23;20580;-59
2022/02/13 12:39:50;;;;;;;5.70;3.00;;;;;;;;;;6147187;23;20009;-59
2022/02/13 12:42:29;;;;;;;3.90;2.60;;;;;;;;;;6146280;23;20677;-60
2022/02/13 12:45:00;;;;;;;2.42;1.58;;;;;;;;;;6146355;23;20013;-59
2022/02/13 12:47:26;;;;;;;3.88;1.80;;;;;;;;;;6146264;23;20014;-58
2022/02/13 12:49:52;;;;;;;2.28;1.60;;;;;;;;;;6146697;23;20068;-59
2022/02/13 12:52:20;;;;;;;2.78;1.60;;;;;;;;;;6147305;23;20010;-59
2022/02/13 12:54:45;;;;;;;1.48;1.25;;;;;;;;;;6148062;23;20036;-58
2022/02/13 12:57:19;;;;;;;3.45;1.45;;;;;;;;;;6122018;23;20021;-59
2022/02/13 12:59:45;;;;;;;3.17;1.70;;;;;;;;;;6148532;23;20006;-59
2022/02/13 13:02:22;;;;;;;1.88;1.00;;;;;;;;;;6148410;23;20013;-50
2022/02/13 13:04:50;;;;;;;2.42;1.58;;;;;;;;;;6148966;23;20036;-59
2022/02/13 13:07:22;;;;;;;3.80;1.70;;;;;;;;;;6147975;23;20487;-59
2022/02/13 13:09:48;;;;;;;4.57;1.53;;;;;;;;;;6148056;23;20060;-58
2022/02/13 13:12:20;;;;;;;4.82;1.88;;;;;;;;;;6147647;23;20228;-59
2022/02/13 13:14:56;;;;;;;3.42;1.50;;;;;;;;;;6148325;23;20468;-59
2022/02/13 13:17:23;;;;;;;1.58;0.90;;;;;;;;;;6148172;23;20010;-59
2022/02/13 13:19:49;;;;;;;1.17;0.65;;;;;;;;;;6149045;23;20005;-59
2022/02/13 13:22:16;;;;;;;3.42;1.30;;;;;;;;;;6149198;23;20024;-59
2022/02/13 13:24:44;;;;;;;4.20;1.20;;;;;;;;;;6148910;23;20032;-60
2022/02/13 13:27:18;;;;;;;5.07;1.70;;;;;;;;;;6148966;23;20080;-60
2022/02/13 13:29:43;;;;;;;7.85;1.98;;;;;;;;;;6148381;23;20001;-59
2022/02/13 13:32:14;;;;;;;2.25;1.15;;;;;;;;;;6148388;23;20083;-59
2022/02/13 13:34:49;;;;;;;2.22;1.08;;;;;;;;;;6147929;23;20013;-59
2022/02/13 13:37:35;;;;;;;2.35;0.80;;;;;;;;;;6148555;23;20009;-59
2022/02/13 13:40:08;;;;;;;2.13;0.90;;;;;;;;;;6148311;23;20017;-60
2022/02/13 13:42:37;;;;;;;2.63;0.75;;;;;;;;;;6148733;23;20011;-60
2022/02/13 13:45:18;;;;;;;0.85;0.73;;;;;;;;;;6149293;23;20076;-60
2022/02/13 13:47:46;;;;;;;3.78;0.93;;;;;;;;;;6148261;23;20040;-61
2022/02/13 13:50:14;;;;;;;1.40;0.60;;;;;;;;;;6146957;23;20021;-59
2022/02/13 13:52:41;;;;;;;1.73;0.75;;;;;;;;;;6121140;23;20013;-60
2022/02/13 13:55:07;;;;;;;2.03;0.85;;;;;;;;;;6148530;23;20080;-60
2022/02/13 13:57:32;;;;;;;1.48;0.65;;;;;;;;;;6148060;23;20618;-60
2022/02/13 13:59:58;;;;;;;3.28;0.90;;;;;;;;;;6148993;23;20013;-60
2022/02/13 14:02:26;;;;;;;3.15;1.23;;;;;;;;;;6121811;23;20492;-59
2022/02/13 14:04:52;;;;;;;2.65;1.50;;;;;;;;;;6148118;23;20347;-60
2022/02/13 14:07:18;;;;;;;1.75;0.88;;;;;;;;;;6147640;23;20005;-60
2022/02/13 14:09:43;;;;;;;1.83;1.15;;;;;;;;;;6148752;23;20005;-60
2022/02/13 14:12:09;;;;;;;2.05;1.33;;;;;;;;;;6148333;23;20014;-60
2022/02/13 14:14:35;;;;;;;4.35;1.80;;;;;;;;;;6147727;23;20013;-60
2022/02/13 14:17:01;;;;;;;5.22;1.80;;;;;;;;;;6147565;23;20010;-60
2022/02/13 14:19:26;;;;;;;2.38;1.70;;;;;;;;;;6148162;23;20455;-59
2022/02/13 14:21:52;;;;;;;6.55;2.58;;;;;;;;;;6147967;23;20438;-59
2022/02/13 14:24:17;;;;;;;4.88;1.67;;;;;;;;;;6147209;23;20311;-59
2022/02/13 14:26:43;;;;;;;4.10;1.73;;;;;;;;;;6148498;23;20336;-60
2022/02/13 14:29:10;;;;;;;1.95;1.50;;;;;;;;;;6148413;23;20033;-59
2022/02/13 14:31:35;;;;;;;5.45;1.85;;;;;;;;;;6121834;23;20084;-60
2022/02/13 14:34:01;;;;;;;4.20;1.50;;;;;;;;;;6148357;23;20426;-59
2022/02/13 14:36:27;;;;;;;2.33;1.45;;;;;;;;;;6147601;23;20377;-59
2022/02/13 14:38:52;;;;;;;2.70;1.50;;;;;;;;;;6146480;23;20093;-60
2022/02/13 14:41:18;;;;;;;1.35;1.08;;;;;;;;;;6146648;23;20330;-59